createdAt,value
2018-04-29T00:00:38.441Z,14.54
2018-04-29T00:01:38.439Z,14.6
2018-04-29T00:02:38.183Z,14.61
2018-04-29T00:03:38.175Z,14.43
2018-04-29T00:04:38.420Z,14.45
2018-04-29T00:05:38.418Z,14.47
2018-04-29T00:06:38.413Z,14.43
2018-04-29T00:07:38.403Z,14.39
2018-04-29T00:08:38.156Z,14.45
2018-04-29T00:09:38.399Z,14.36
2018-04-29T00:10:37.882Z,14.37
2018-04-29T00:11:38.380Z,14.28
2018-04-29T00:12:38.374Z,14.32
2018-04-29T00:13:38.380Z,14.22
2018-04-29T00:14:38.369Z,14.33
2018-04-29T00:15:38.367Z,14.25
2018-04-29T00:16:38.102Z,14.28
2018-04-29T00:17:38.106Z,14.29
2018-04-29T00:18:38.109Z,14.27
2018-04-29T00:19:38.337Z,14.27
2018-04-29T00:20:38.333Z,14.25
2018-04-29T00:21:38.331Z,14.27
2018-04-29T00:22:38.344Z,14.27
2018-04-29T00:23:38.315Z,14.27
2018-04-29T00:24:38.309Z,14.32
2018-04-29T00:25:38.313Z,14.36
2018-04-29T00:26:38.300Z,14.35
2018-04-29T00:27:38.048Z,14.39
2018-04-29T00:28:38.286Z,14.43
2018-04-29T00:29:38.281Z,14.46
2018-04-29T00:30:38.027Z,14.45
2018-04-29T00:31:38.273Z,14.45
2018-04-29T00:32:37.760Z,14.37
2018-04-29T00:33:38.261Z,14.36
2018-04-29T00:34:38.283Z,14.45
2018-04-29T00:35:38.249Z,14.47
2018-04-29T00:36:37.992Z,14.4
2018-04-29T00:37:38.240Z,14.4
2018-04-29T00:38:38.396Z,14.24
2018-04-29T00:39:38.226Z,14.32
2018-04-29T00:40:37.970Z,14.32
2018-04-29T00:41:37.963Z,14.35
2018-04-29T00:42:38.296Z,14.22
2018-04-29T00:43:38.205Z,14.21
2018-04-29T00:44:37.969Z,14.07
2018-04-29T00:45:38.201Z,14.09
2018-04-29T00:46:38.202Z,14.02
2018-04-29T00:47:38.185Z,13.89
2018-04-29T00:48:38.177Z,13.89
2018-04-29T00:49:37.668Z,13.88
2018-04-29T00:50:38.165Z,13.84
2018-04-29T00:51:38.160Z,13.73
2018-04-29T00:52:38.170Z,13.71
2018-04-29T00:53:38.155Z,13.66
2018-04-29T00:54:38.157Z,13.6
2018-04-29T00:55:38.145Z,13.55
2018-04-29T00:56:37.878Z,13.57
2018-04-29T00:57:37.878Z,13.48
2018-04-29T00:58:38.119Z,13.42
2018-04-29T00:59:38.112Z,13.42
2018-04-29T01:00:37.854Z,13.3
2018-04-29T01:01:37.849Z,13.23
2018-04-29T01:02:38.100Z,13.26
2018-04-29T01:03:38.093Z,13.25
2018-04-29T01:04:38.087Z,13.12
2018-04-29T01:05:38.074Z,13.11
2018-04-29T01:06:38.076Z,13.12
2018-04-29T01:07:37.813Z,13.1
2018-04-29T01:08:38.059Z,13.01
2018-04-29T01:09:38.055Z,13.01
2018-04-29T01:10:38.052Z,13.04
2018-04-29T01:11:38.040Z,13.01
2018-04-29T01:12:37.528Z,13
2018-04-29T01:13:38.031Z,12.9
2018-04-29T01:14:38.027Z,12.83
2018-04-29T01:15:37.767Z,12.85
2018-04-29T01:16:38.008Z,12.82
2018-04-29T01:17:38.019Z,12.92
2018-04-29T01:18:38.062Z,12.75
2018-04-29T01:19:37.736Z,12.87
2018-04-29T01:20:37.983Z,12.72
2018-04-29T01:21:37.976Z,12.77
2018-04-29T01:22:37.730Z,12.72
2018-04-29T01:23:37.964Z,12.74
2018-04-29T01:24:37.960Z,12.7
2018-04-29T01:25:37.953Z,12.71
2018-04-29T01:26:37.944Z,12.68
2018-04-29T01:27:37.437Z,12.6
2018-04-29T01:28:37.930Z,12.65
2018-04-29T01:29:37.924Z,12.62
2018-04-29T01:30:37.922Z,12.54
2018-04-29T01:31:37.911Z,12.57
2018-04-29T01:32:37.914Z,12.54
2018-04-29T01:33:37.895Z,12.5
2018-04-29T01:34:37.897Z,12.45
2018-04-29T01:35:37.891Z,12.42
2018-04-29T01:36:37.877Z,12.42
2018-04-29T01:37:37.887Z,12.42
2018-04-29T01:38:37.864Z,12.37
2018-04-29T01:39:37.861Z,12.35
2018-04-29T01:40:37.859Z,12.34
2018-04-29T01:41:37.855Z,12.24
2018-04-29T01:42:37.837Z,12.35
2018-04-29T01:43:37.833Z,12.32
2018-04-29T01:44:37.824Z,12.24
2018-04-29T01:45:37.820Z,12.2
2018-04-29T01:46:37.816Z,12.21
2018-04-29T01:47:37.807Z,12.2
2018-04-29T01:48:37.544Z,12.2
2018-04-29T01:49:37.802Z,12.21
2018-04-29T01:50:37.532Z,12.1
2018-04-29T01:51:37.604Z,12.1
2018-04-29T01:52:37.776Z,12.12
2018-04-29T01:53:37.774Z,12.13
2018-04-29T01:54:37.758Z,12.09
2018-04-29T01:55:37.750Z,12.16
2018-04-29T01:56:37.491Z,12.05
2018-04-29T01:57:37.748Z,12.13
2018-04-29T01:58:37.736Z,12.09
2018-04-29T01:59:37.480Z,12.12
2018-04-29T02:00:37.716Z,12.2
2018-04-29T02:01:37.712Z,12.24
2018-04-29T02:02:37.703Z,12.21
2018-04-29T02:03:37.754Z,12.2
2018-04-29T02:04:37.690Z,12.29
2018-04-29T02:05:37.687Z,12.24
2018-04-29T02:06:37.422Z,12.32
2018-04-29T02:07:37.669Z,12.29
2018-04-29T02:08:37.669Z,12.46
2018-04-29T02:09:37.653Z,12.34
2018-04-29T02:10:37.645Z,12.45
2018-04-29T02:11:37.639Z,12.5
2018-04-29T02:12:37.657Z,12.46
2018-04-29T02:13:37.634Z,12.46
2018-04-29T02:14:37.114Z,12.45
2018-04-29T02:15:37.616Z,12.5
2018-04-29T02:16:37.612Z,12.46
2018-04-29T02:17:37.600Z,12.52
2018-04-29T02:18:37.595Z,12.47
2018-04-29T02:19:37.334Z,12.32
2018-04-29T02:20:37.331Z,12.42
2018-04-29T02:21:37.582Z,12.5
2018-04-29T02:22:37.323Z,12.34
2018-04-29T02:23:37.557Z,12.24
2018-04-29T02:24:37.297Z,12.28
2018-04-29T02:25:37.299Z,12.21
2018-04-29T02:26:37.541Z,12.21
2018-04-29T02:27:37.281Z,12.2
2018-04-29T02:28:37.525Z,12.17
2018-04-29T02:29:37.524Z,12.12
2018-04-29T02:30:37.527Z,12.17
2018-04-29T02:31:37.508Z,12.2
2018-04-29T02:32:37.514Z,12.01
2018-04-29T02:33:37.512Z,12.02
2018-04-29T02:34:37.485Z,11.99
2018-04-29T02:35:37.476Z,12.1
2018-04-29T02:36:37.470Z,12.02
2018-04-29T02:37:37.465Z,12.02
2018-04-29T02:38:37.454Z,12.02
2018-04-29T02:39:37.197Z,12.01
2018-04-29T02:40:37.462Z,12.01
2018-04-29T02:41:36.931Z,11.91
2018-04-29T02:42:37.220Z,11.95
2018-04-29T02:43:37.166Z,11.83
2018-04-29T02:44:37.428Z,11.83
2018-04-29T02:45:37.153Z,11.88
2018-04-29T02:46:37.147Z,11.88
2018-04-29T02:47:37.401Z,11.85
2018-04-29T02:48:37.479Z,11.9
2018-04-29T02:49:37.382Z,11.86
2018-04-29T02:50:37.374Z,11.9
2018-04-29T02:51:37.367Z,11.83
2018-04-29T02:52:37.376Z,11.88
2018-04-29T02:53:37.350Z,11.82
2018-04-29T02:54:37.373Z,11.86
2018-04-29T02:55:37.336Z,11.88
2018-04-29T02:56:37.332Z,11.85
2018-04-29T02:57:37.326Z,11.83
2018-04-29T02:58:37.059Z,11.88
2018-04-29T02:59:37.307Z,11.91
2018-04-29T03:00:37.300Z,11.9
2018-04-29T03:01:37.039Z,11.86
2018-04-29T03:02:37.291Z,11.8
2018-04-29T03:03:37.276Z,11.82
2018-04-29T03:04:37.273Z,11.8
2018-04-29T03:05:37.261Z,11.8
2018-04-29T03:06:37.268Z,11.82
2018-04-29T03:07:37.249Z,11.9
2018-04-29T03:08:36.991Z,11.79
2018-04-29T03:09:37.242Z,11.85
2018-04-29T03:10:37.226Z,11.8
2018-04-29T03:11:37.218Z,11.83
2018-04-29T03:12:37.226Z,11.86
2018-04-29T03:13:37.215Z,11.8
2018-04-29T03:14:37.204Z,11.79
2018-04-29T03:15:36.944Z,11.78
2018-04-29T03:16:36.931Z,11.91
2018-04-29T03:17:36.928Z,12.04
2018-04-29T03:18:37.170Z,11.91
2018-04-29T03:19:36.917Z,11.95
2018-04-29T03:20:37.151Z,11.9
2018-04-29T03:21:37.153Z,11.94
2018-04-29T03:22:37.144Z,11.94
2018-04-29T03:23:37.131Z,11.86
2018-04-29T03:24:37.124Z,11.8
2018-04-29T03:25:37.121Z,11.83
2018-04-29T03:26:36.858Z,11.83
2018-04-29T03:27:37.100Z,11.8
2018-04-29T03:28:37.096Z,11.73
2018-04-29T03:29:37.088Z,11.76
2018-04-29T03:30:36.833Z,11.7
2018-04-29T03:31:36.827Z,11.72
2018-04-29T03:32:37.064Z,11.76
2018-04-29T03:33:36.807Z,11.72
2018-04-29T03:34:37.056Z,11.73
2018-04-29T03:35:37.068Z,11.69
2018-04-29T03:36:37.042Z,11.64
2018-04-29T03:37:37.029Z,11.75
2018-04-29T03:38:36.772Z,11.65
2018-04-29T03:39:36.777Z,11.79
2018-04-29T03:40:37.013Z,11.75
2018-04-29T03:41:36.751Z,11.67
2018-04-29T03:42:37.002Z,11.78
2018-04-29T03:43:36.987Z,11.76
2018-04-29T03:44:36.986Z,11.69
2018-04-29T03:45:36.974Z,11.76
2018-04-29T03:46:36.709Z,11.7
2018-04-29T03:47:36.955Z,11.72
2018-04-29T03:48:36.960Z,11.76
2018-04-29T03:49:36.953Z,11.64
2018-04-29T03:50:36.701Z,11.7
2018-04-29T03:51:36.933Z,11.75
2018-04-29T03:52:36.921Z,11.69
2018-04-29T03:53:36.915Z,11.75
2018-04-29T03:54:36.906Z,11.64
2018-04-29T03:55:36.904Z,11.67
2018-04-29T03:56:36.897Z,11.78
2018-04-29T03:57:36.896Z,11.65
2018-04-29T03:58:36.627Z,11.73
2018-04-29T03:59:36.656Z,11.7
2018-04-29T04:00:36.871Z,11.69
2018-04-29T04:01:36.867Z,11.76
2018-04-29T04:02:37.051Z,11.82
2018-04-29T04:03:36.587Z,11.69
2018-04-29T04:04:36.923Z,11.75
2018-04-29T04:05:36.827Z,11.8
2018-04-29T04:06:36.821Z,11.78
2018-04-29T04:07:36.565Z,11.83
2018-04-29T04:08:36.810Z,11.78
2018-04-29T04:09:36.797Z,11.8
2018-04-29T04:10:36.791Z,11.86
2018-04-29T04:11:36.825Z,11.8
2018-04-29T04:12:36.776Z,11.85
2018-04-29T04:13:36.521Z,11.91
2018-04-29T04:14:36.771Z,11.88
2018-04-29T04:15:36.756Z,11.96
2018-04-29T04:16:36.752Z,11.95
2018-04-29T04:17:36.739Z,12.01
2018-04-29T04:18:36.733Z,12.1
2018-04-29T04:19:36.731Z,12.1
2018-04-29T04:20:36.721Z,12.12
2018-04-29T04:21:36.716Z,12.23
2018-04-29T04:22:36.712Z,12.24
2018-04-29T04:23:36.707Z,12.35
2018-04-29T04:24:36.692Z,12.35
2018-04-29T04:25:36.700Z,12.47
2018-04-29T04:26:36.426Z,12.56
2018-04-29T04:27:36.673Z,12.65
2018-04-29T04:28:36.411Z,12.72
2018-04-29T04:29:36.405Z,12.7
2018-04-29T04:30:36.404Z,12.9
2018-04-29T04:31:36.397Z,12.96
2018-04-29T04:32:36.642Z,13.05
2018-04-29T04:33:36.645Z,13.1
2018-04-29T04:34:36.635Z,13.17
2018-04-29T04:35:36.634Z,13.3
2018-04-29T04:36:36.363Z,13.44
2018-04-29T04:37:36.358Z,13.48
2018-04-29T04:38:36.353Z,13.52
2018-04-29T04:39:36.593Z,13.67
2018-04-29T04:40:36.590Z,13.88
2018-04-29T04:41:36.585Z,13.87
2018-04-29T04:42:36.322Z,14.14
2018-04-29T04:43:36.582Z,14.2
2018-04-29T04:44:36.566Z,14.24
2018-04-29T04:45:36.055Z,14.43
2018-04-29T04:46:36.559Z,14.6
2018-04-29T04:47:36.294Z,14.65
2018-04-29T04:48:36.541Z,14.83
2018-04-29T04:49:36.536Z,14.98
2018-04-29T04:50:36.309Z,15.11
2018-04-29T04:51:36.527Z,15.19
2018-04-29T04:52:36.530Z,15.34
2018-04-29T04:53:36.266Z,15.39
2018-04-29T04:54:36.510Z,15.38
2018-04-29T04:55:36.523Z,15.5
2018-04-29T04:56:36.249Z,15.53
2018-04-29T04:57:36.499Z,15.6
2018-04-29T04:58:36.498Z,15.68
2018-04-29T04:59:36.498Z,15.68
2018-04-29T05:00:36.485Z,15.83
2018-04-29T05:01:36.481Z,16
2018-04-29T05:02:36.476Z,16
2018-04-29T05:03:36.476Z,16.05
2018-04-29T05:04:36.468Z,16.21
2018-04-29T05:05:36.478Z,16.41
2018-04-29T05:06:36.467Z,16.53
2018-04-29T05:07:36.459Z,16.7
2018-04-29T05:08:36.453Z,16.82
2018-04-29T05:09:36.202Z,16.96
2018-04-29T05:10:36.196Z,17.08
2018-04-29T05:11:36.441Z,17.25
2018-04-29T05:12:36.185Z,17.52
2018-04-29T05:13:36.259Z,17.75
2018-04-29T05:14:36.434Z,18.02
2018-04-29T05:15:36.436Z,18.21
2018-04-29T05:16:36.439Z,18.37
2018-04-29T05:17:36.425Z,18.54
2018-04-29T05:18:36.421Z,18.81
2018-04-29T05:19:36.166Z,18.95
2018-04-29T05:20:36.420Z,18.99
2018-04-29T05:21:36.162Z,19.19
2018-04-29T05:22:36.414Z,19.41
2018-04-29T05:23:36.417Z,19.58
2018-04-29T05:24:36.418Z,19.77
2018-04-29T05:25:36.409Z,19.95
2018-04-29T05:26:36.408Z,20.03
2018-04-29T05:27:36.407Z,20.29
2018-04-29T05:28:36.158Z,20.58
2018-04-29T05:29:36.404Z,20.88
2018-04-29T05:30:36.159Z,21.16
2018-04-29T05:31:36.151Z,21.37
2018-04-29T05:32:36.416Z,21.75
2018-04-29T05:33:36.411Z,22.02
2018-04-29T05:34:36.405Z,22.22
2018-04-29T05:35:36.405Z,22.49
2018-04-29T05:36:36.409Z,22.61
2018-04-29T05:37:36.409Z,22.82
2018-04-29T05:38:36.415Z,23
2018-04-29T05:39:36.155Z,23.23
2018-04-29T05:40:36.414Z,23.33
2018-04-29T05:41:36.160Z,23.68
2018-04-29T05:42:36.233Z,23.97
2018-04-29T05:43:36.417Z,24.18
2018-04-29T05:44:36.421Z,24.32
2018-04-29T05:45:36.431Z,24.49
2018-04-29T05:46:36.427Z,24.73
2018-04-29T05:47:36.447Z,24.98
2018-04-29T05:48:36.442Z,25.39
2018-04-29T05:49:36.443Z,25.64
2018-04-29T05:50:36.442Z,25.97
2018-04-29T05:51:36.198Z,26.29
2018-04-29T05:52:36.199Z,26.52
2018-04-29T05:53:36.512Z,26.8
2018-04-29T05:54:36.462Z,27
2018-04-29T05:55:36.470Z,27.29
2018-04-29T05:56:36.482Z,27.49
2018-04-29T05:57:36.483Z,27.74
2018-04-29T05:58:36.490Z,27.84
2018-04-29T05:59:36.249Z,27.81
2018-04-29T06:00:36.510Z,27.87
2018-04-29T06:01:36.507Z,27.7
2018-04-29T06:02:36.268Z,27.75
2018-04-29T06:03:36.268Z,27.55
2018-04-29T06:04:36.533Z,27.47
2018-04-29T06:05:36.541Z,27.41
2018-04-29T06:06:36.870Z,27.47
2018-04-29T06:07:36.546Z,27.43
2018-04-29T06:08:36.564Z,27.37
2018-04-29T06:09:36.563Z,27.31
2018-04-29T06:10:36.579Z,27.18
2018-04-29T06:11:36.573Z,27.04
2018-04-29T06:12:36.582Z,27
2018-04-29T06:13:36.601Z,26.94
2018-04-29T06:14:36.593Z,26.91
2018-04-29T06:15:36.630Z,26.87
2018-04-29T06:16:36.350Z,26.73
2018-04-29T06:17:36.621Z,26.52
2018-04-29T06:18:36.619Z,26.39
2018-04-29T06:19:36.371Z,26.39
2018-04-29T06:20:36.821Z,26.29
2018-04-29T06:21:36.639Z,26.23
2018-04-29T06:22:36.644Z,26.43
2018-04-29T06:23:36.672Z,26.66
2018-04-29T06:24:36.663Z,26.81
2018-04-29T06:25:36.677Z,27.02
2018-04-29T06:26:36.672Z,27.34
2018-04-29T06:27:36.684Z,27.49
2018-04-29T06:28:36.688Z,27.79
2018-04-29T06:29:36.703Z,28.06
2018-04-29T06:30:36.714Z,28.21
2018-04-29T06:31:36.712Z,28.48
2018-04-29T06:32:36.727Z,28.59
2018-04-29T06:33:36.554Z,28.71
2018-04-29T06:34:36.731Z,28.95
2018-04-29T06:35:36.742Z,28.88
2018-04-29T06:36:36.752Z,28.52
2018-04-29T06:37:36.753Z,28.41
2018-04-29T06:38:36.766Z,28.44
2018-04-29T06:39:36.784Z,28.7
2018-04-29T06:40:36.784Z,28.92
2018-04-29T06:41:36.795Z,29.19
2018-04-29T06:42:36.562Z,29.45
2018-04-29T06:43:36.560Z,29.76
2018-04-29T06:44:36.563Z,30.1
2018-04-29T06:45:36.845Z,30.29
2018-04-29T06:46:36.844Z,30.54
2018-04-29T06:47:36.592Z,30.6
2018-04-29T06:48:36.851Z,30.61
2018-04-29T06:49:36.867Z,30.65
2018-04-29T06:50:36.895Z,30.57
2018-04-29T06:51:36.894Z,30.46
2018-04-29T06:52:36.639Z,30.22
2018-04-29T06:53:37.176Z,30.05
2018-04-29T06:54:36.912Z,29.95
2018-04-29T06:55:36.941Z,30
2018-04-29T06:56:36.934Z,30.01
2018-04-29T06:57:36.936Z,30.08
2018-04-29T06:58:36.947Z,29.92
2018-04-29T06:59:36.709Z,29.97
2018-04-29T07:00:36.969Z,29.89
2018-04-29T07:01:36.986Z,29.85
2018-04-29T07:02:36.979Z,29.8
2018-04-29T07:03:36.992Z,29.83
2018-04-29T07:04:36.997Z,29.9
2018-04-29T07:05:37.011Z,30.16
2018-04-29T07:06:37.019Z,30.45
2018-04-29T07:07:37.022Z,30.77
2018-04-29T07:08:37.038Z,30.99
2018-04-29T07:09:37.042Z,31.32
2018-04-29T07:10:37.048Z,31.41
2018-04-29T07:11:37.057Z,31.65
2018-04-29T07:12:37.072Z,31.75
2018-04-29T07:13:37.077Z,31.56
2018-04-29T07:14:37.089Z,31.41
2018-04-29T07:15:37.102Z,31.26
2018-04-29T07:16:37.104Z,31.01
2018-04-29T07:17:37.123Z,30.86
2018-04-29T07:18:37.132Z,30.77
2018-04-29T07:19:37.136Z,30.64
2018-04-29T07:20:37.152Z,30.34
2018-04-29T07:21:37.153Z,30.07
2018-04-29T07:22:36.909Z,29.85
2018-04-29T07:23:37.182Z,29.71
2018-04-29T07:24:36.930Z,29.71
2018-04-29T07:25:36.935Z,29.78
2018-04-29T07:26:36.953Z,29.76
2018-04-29T07:27:36.954Z,29.7
2018-04-29T07:28:36.999Z,29.71
2018-04-29T07:29:37.231Z,29.76
2018-04-29T07:30:37.233Z,29.52
2018-04-29T07:31:37.246Z,29.31
2018-04-29T07:32:37.249Z,29.21
2018-04-29T07:33:37.011Z,29.27
2018-04-29T07:34:37.270Z,29.34
2018-04-29T07:35:37.025Z,29.55
2018-04-29T07:36:37.378Z,29.6
2018-04-29T07:37:37.299Z,29.65
2018-04-29T07:38:37.060Z,29.76
2018-04-29T07:39:37.309Z,29.79
2018-04-29T07:40:37.316Z,29.78
2018-04-29T07:41:37.333Z,29.73
2018-04-29T07:42:37.333Z,29.65
2018-04-29T07:43:37.343Z,29.79
2018-04-29T07:44:37.181Z,29.79
2018-04-29T07:45:37.360Z,29.78
2018-04-29T07:46:37.442Z,29.82
2018-04-29T07:47:37.376Z,29.82
2018-04-29T07:48:37.384Z,29.71
2018-04-29T07:49:37.392Z,29.53
2018-04-29T07:50:37.150Z,29.23
2018-04-29T07:51:37.149Z,28.93
2018-04-29T07:52:37.934Z,28.68
2018-04-29T07:53:37.418Z,28.51
2018-04-29T07:54:37.175Z,28.48
2018-04-29T07:55:37.446Z,28.41
2018-04-29T07:56:37.193Z,28.48
2018-04-29T07:57:37.451Z,28.54
2018-04-29T07:58:37.452Z,28.55
2018-04-29T07:59:37.473Z,28.4
2018-04-29T08:00:37.559Z,28.41
2018-04-29T08:01:37.477Z,28.37
2018-04-29T08:02:37.252Z,28.24
2018-04-29T08:03:37.502Z,28.06
2018-04-29T08:04:37.257Z,27.75
2018-04-29T08:05:37.256Z,27.59
2018-04-29T08:06:37.512Z,27.29
2018-04-29T08:07:37.521Z,27.1
2018-04-29T08:08:37.531Z,26.82
2018-04-29T08:09:37.536Z,26.62
2018-04-29T08:10:37.547Z,26.45
2018-04-29T08:11:37.314Z,26.48
2018-04-29T08:12:37.558Z,26.5
2018-04-29T08:13:37.564Z,26.51
2018-04-29T08:14:37.573Z,26.88
2018-04-29T08:15:37.857Z,27.14
2018-04-29T08:16:37.331Z,27.65
2018-04-29T08:17:37.589Z,27.97
2018-04-29T08:18:37.602Z,28.14
2018-04-29T08:19:37.360Z,28.34
2018-04-29T08:20:37.362Z,28.43
2018-04-29T08:21:37.378Z,28.41
2018-04-29T08:22:37.743Z,28.48
2018-04-29T08:23:37.639Z,28.54
2018-04-29T08:24:37.643Z,28.56
2018-04-29T08:25:37.657Z,28.59
2018-04-29T08:26:37.740Z,28.61
2018-04-29T08:27:37.670Z,28.58
2018-04-29T08:28:37.422Z,28.56
2018-04-29T08:29:37.427Z,28.64
2018-04-29T08:30:37.433Z,28.61
2018-04-29T08:31:37.694Z,28.58
2018-04-29T08:32:37.709Z,28.54
2018-04-29T08:33:37.707Z,28.44
2018-04-29T08:34:37.730Z,28.48
2018-04-29T08:35:37.719Z,28.44
2018-04-29T08:36:37.737Z,28.43
2018-04-29T08:37:37.744Z,28.44
2018-04-29T08:38:37.752Z,28.4
2018-04-29T08:39:37.496Z,28.14
2018-04-29T08:40:37.769Z,27.85
2018-04-29T08:41:37.776Z,27.49
2018-04-29T08:42:37.770Z,27.14
2018-04-29T08:43:37.777Z,26.84
2018-04-29T08:44:37.777Z,26.55
2018-04-29T08:45:37.783Z,26.21
2018-04-29T08:46:37.792Z,26.12
2018-04-29T08:47:37.800Z,25.87
2018-04-29T08:48:37.942Z,26.01
2018-04-29T08:49:37.948Z,26.05
2018-04-29T08:50:37.563Z,26.1
2018-04-29T08:51:37.561Z,25.97
2018-04-29T08:52:37.817Z,25.97
2018-04-29T08:53:37.573Z,25.98
2018-04-29T08:54:37.578Z,25.95
2018-04-29T08:55:37.831Z,25.82
2018-04-29T08:56:37.893Z,25.6
2018-04-29T08:57:37.849Z,25.45
2018-04-29T08:58:37.849Z,25.2
2018-04-29T08:59:37.853Z,25.05
2018-04-29T09:00:37.870Z,24.87
2018-04-29T09:01:37.707Z,24.68
2018-04-29T09:02:37.867Z,24.64
2018-04-29T09:03:37.993Z,24.49
2018-04-29T09:04:37.894Z,24.46
2018-04-29T09:05:37.902Z,24.31
2018-04-29T09:06:37.970Z,24.21
2018-04-29T09:07:37.894Z,24.1
2018-04-29T09:08:37.890Z,24.03
2018-04-29T09:09:37.904Z,24
2018-04-29T09:10:37.638Z,23.9
2018-04-29T09:11:37.895Z,23.8
2018-04-29T09:12:37.895Z,23.7
2018-04-29T09:13:37.895Z,23.6
2018-04-29T09:14:37.900Z,23.47
2018-04-29T09:15:37.903Z,23.33
2018-04-29T09:16:37.916Z,23.17
2018-04-29T09:17:37.792Z,23.15
2018-04-29T09:18:37.905Z,23.23
2018-04-29T09:19:37.913Z,23.15
2018-04-29T09:20:37.912Z,23.16
2018-04-29T09:21:37.910Z,23.17
2018-04-29T09:22:37.908Z,23.25
2018-04-29T09:23:37.665Z,23.17
2018-04-29T09:24:37.670Z,23.22
2018-04-29T09:25:37.666Z,23.25
2018-04-29T09:26:37.660Z,23.05
2018-04-29T09:27:37.915Z,22.98
2018-04-29T09:28:37.915Z,22.98
2018-04-29T09:29:37.919Z,22.86
2018-04-29T09:30:37.922Z,22.83
2018-04-29T09:31:38.013Z,22.94
2018-04-29T09:32:37.940Z,22.92
2018-04-29T09:33:37.926Z,22.86
2018-04-29T09:34:37.924Z,22.94
2018-04-29T09:35:37.944Z,23.02
2018-04-29T09:36:37.923Z,22.91
2018-04-29T09:37:37.929Z,22.95
2018-04-29T09:38:37.943Z,22.95
2018-04-29T09:39:37.671Z,22.94
2018-04-29T09:40:37.418Z,22.98
2018-04-29T09:41:37.922Z,22.95
2018-04-29T09:42:37.675Z,23.02
2018-04-29T09:43:38.099Z,22.98
2018-04-29T09:44:37.677Z,22.91
2018-04-29T09:45:37.938Z,22.88
2018-04-29T09:46:37.929Z,22.83
2018-04-29T09:47:37.925Z,22.94
2018-04-29T09:48:38.081Z,22.94
2018-04-29T09:49:37.924Z,22.95
2018-04-29T09:50:37.935Z,22.97
2018-04-29T09:51:37.930Z,22.95
2018-04-29T09:52:37.930Z,22.85
2018-04-29T09:53:37.929Z,22.9
2018-04-29T09:54:37.672Z,22.91
2018-04-29T09:55:37.924Z,22.9
2018-04-29T09:56:37.931Z,22.86
2018-04-29T09:57:37.928Z,22.86
2018-04-29T09:58:37.945Z,22.91
2018-04-29T09:59:37.681Z,22.91
2018-04-29T10:00:37.452Z,22.9
2018-04-29T10:01:37.938Z,22.91
2018-04-29T10:02:37.929Z,22.88
2018-04-29T10:03:37.673Z,22.91
2018-04-29T10:04:37.686Z,22.9
2018-04-29T10:05:37.673Z,22.83
2018-04-29T10:06:37.678Z,22.76
2018-04-29T10:07:37.675Z,22.77
2018-04-29T10:08:37.927Z,22.79
2018-04-29T10:09:38.179Z,22.79
2018-04-29T10:10:37.672Z,22.83
2018-04-29T10:11:37.419Z,22.86
2018-04-29T10:12:37.926Z,22.85
2018-04-29T10:13:37.419Z,22.86
2018-04-29T10:14:37.929Z,22.88
2018-04-29T10:15:37.927Z,22.83
2018-04-29T10:16:37.674Z,22.83
2018-04-29T10:17:37.939Z,22.88
2018-04-29T10:18:37.935Z,22.85
2018-04-29T10:19:37.928Z,22.86
2018-04-29T10:20:37.925Z,22.85
2018-04-29T10:21:37.952Z,22.88
2018-04-29T10:22:37.680Z,22.85
2018-04-29T10:23:37.922Z,22.85
2018-04-29T10:24:37.825Z,22.85
2018-04-29T10:25:37.675Z,22.9
2018-04-29T10:26:37.673Z,22.83
2018-04-29T10:27:37.926Z,22.85
2018-04-29T10:28:37.674Z,22.9
2018-04-29T10:29:37.933Z,22.97
2018-04-29T10:30:37.934Z,22.9
2018-04-29T10:31:37.669Z,22.95
2018-04-29T10:32:37.739Z,23.01
2018-04-29T10:33:37.932Z,22.98
2018-04-29T10:34:37.922Z,23.05
2018-04-29T10:35:37.930Z,23.1
2018-04-29T10:36:37.923Z,23.01
2018-04-29T10:37:38.009Z,23.02
2018-04-29T10:38:37.931Z,23.05
2018-04-29T10:39:37.921Z,23.12
2018-04-29T10:40:37.668Z,23.17
2018-04-29T10:41:37.931Z,23.17
2018-04-29T10:42:37.933Z,23.25
2018-04-29T10:43:37.929Z,23.33
2018-04-29T10:44:37.922Z,23.32
2018-04-29T10:45:37.922Z,23.36
2018-04-29T10:46:37.669Z,23.39
2018-04-29T10:47:37.944Z,23.42
2018-04-29T10:48:37.923Z,23.35
2018-04-29T10:49:37.684Z,23.46
2018-04-29T10:50:37.670Z,23.46
2018-04-29T10:51:38.007Z,23.43
2018-04-29T10:52:37.823Z,23.43
2018-04-29T10:53:37.920Z,23.48
2018-04-29T10:54:37.928Z,23.47
2018-04-29T10:55:37.922Z,23.47
2018-04-29T10:56:38.139Z,23.54
2018-04-29T10:57:37.675Z,23.58
2018-04-29T10:58:37.928Z,23.57
2018-04-29T10:59:37.930Z,23.61
2018-04-29T11:00:37.931Z,23.66
2018-04-29T11:01:37.930Z,23.63
2018-04-29T11:02:37.922Z,23.63
2018-04-29T11:03:38.007Z,23.72
2018-04-29T11:04:37.669Z,23.75
2018-04-29T11:05:37.926Z,23.8
2018-04-29T11:06:37.939Z,23.83
2018-04-29T11:07:37.929Z,23.79
2018-04-29T11:08:37.935Z,23.83
2018-04-29T11:09:37.672Z,23.85
2018-04-29T11:10:37.927Z,23.91
2018-04-29T11:11:37.730Z,24.02
2018-04-29T11:12:37.693Z,23.97
2018-04-29T11:13:37.926Z,23.98
2018-04-29T11:14:37.944Z,23.95
2018-04-29T11:15:37.925Z,23.97
2018-04-29T11:16:37.949Z,23.94
2018-04-29T11:17:37.960Z,23.97
2018-04-29T11:18:37.928Z,24.06
2018-04-29T11:19:37.943Z,24.08
2018-04-29T11:20:37.691Z,24.06
2018-04-29T11:21:37.934Z,24.08
2018-04-29T11:22:37.936Z,24.09
2018-04-29T11:23:37.929Z,24.05
2018-04-29T11:24:37.938Z,24.05
2018-04-29T11:25:38.013Z,24.18
2018-04-29T11:26:37.677Z,24.1
2018-04-29T11:27:37.946Z,24.1
2018-04-29T11:28:37.857Z,24.12
2018-04-29T11:29:37.681Z,24.22
2018-04-29T11:30:37.956Z,24.28
2018-04-29T11:31:37.935Z,24.27
2018-04-29T11:32:37.942Z,24.3
2018-04-29T11:33:37.939Z,24.28
2018-04-29T11:34:37.935Z,24.37
2018-04-29T11:35:37.940Z,24.37
2018-04-29T11:36:37.683Z,24.34
2018-04-29T11:37:37.700Z,24.39
2018-04-29T11:38:37.692Z,24.34
2018-04-29T11:39:37.685Z,24.45
2018-04-29T11:40:38.114Z,24.43
2018-04-29T11:41:37.942Z,24.43
2018-04-29T11:42:37.944Z,24.37
2018-04-29T11:43:37.940Z,24.42
2018-04-29T11:44:37.944Z,24.39
2018-04-29T11:45:37.694Z,24.43
2018-04-29T11:46:37.947Z,24.42
2018-04-29T11:47:37.945Z,24.42
2018-04-29T11:48:37.944Z,24.43
2018-04-29T11:49:37.950Z,24.46
2018-04-29T11:50:37.948Z,24.46
2018-04-29T11:51:37.948Z,24.46
2018-04-29T11:52:37.955Z,24.55
2018-04-29T11:53:37.952Z,24.47
2018-04-29T11:54:37.953Z,24.52
2018-04-29T11:55:37.953Z,24.53
2018-04-29T11:56:37.950Z,24.55
2018-04-29T11:57:37.952Z,24.52
2018-04-29T11:58:37.952Z,24.49
2018-04-29T11:59:37.955Z,24.47
2018-04-29T12:00:37.702Z,24.57
2018-04-29T12:01:37.959Z,24.58
2018-04-29T12:02:37.512Z,24.61
2018-04-29T12:03:37.969Z,24.64
2018-04-29T12:04:37.704Z,24.62
2018-04-29T12:05:37.961Z,24.58
2018-04-29T12:06:37.705Z,24.58
2018-04-29T12:07:37.959Z,24.61
2018-04-29T12:08:37.962Z,24.6
2018-04-29T12:09:37.959Z,24.6
2018-04-29T12:10:37.960Z,24.57
2018-04-29T12:11:38.034Z,24.61
2018-04-29T12:12:37.969Z,24.6
2018-04-29T12:13:37.966Z,24.67
2018-04-29T12:14:37.710Z,24.6
2018-04-29T12:15:37.798Z,24.61
2018-04-29T12:16:38.094Z,24.64
2018-04-29T12:17:37.973Z,24.62
2018-04-29T12:18:37.966Z,24.68
2018-04-29T12:19:37.970Z,24.67
2018-04-29T12:20:37.721Z,24.64
2018-04-29T12:21:37.969Z,24.61
2018-04-29T12:22:37.974Z,24.64
2018-04-29T12:23:37.718Z,24.57
2018-04-29T12:24:38.159Z,24.67
2018-04-29T12:25:37.976Z,24.64
2018-04-29T12:26:37.980Z,24.65
2018-04-29T12:27:37.982Z,24.58
2018-04-29T12:28:37.973Z,24.69
2018-04-29T12:29:38.007Z,24.65
2018-04-29T12:30:37.980Z,24.67
2018-04-29T12:31:37.975Z,24.68
2018-04-29T12:32:37.727Z,24.71
2018-04-29T12:33:38.177Z,24.76
2018-04-29T12:34:37.728Z,24.67
2018-04-29T12:35:37.982Z,24.77
2018-04-29T12:36:37.979Z,24.73
2018-04-29T12:37:37.998Z,24.87
2018-04-29T12:38:37.989Z,24.81
2018-04-29T12:39:37.987Z,24.85
2018-04-29T12:40:37.987Z,24.81
2018-04-29T12:41:37.993Z,24.84
2018-04-29T12:42:37.985Z,24.73
2018-04-29T12:43:37.989Z,24.78
2018-04-29T12:44:37.987Z,24.85
2018-04-29T12:45:37.994Z,24.87
2018-04-29T12:46:37.800Z,24.84
2018-04-29T12:47:37.749Z,24.91
2018-04-29T12:48:38.001Z,24.88
2018-04-29T12:49:37.739Z,24.84
2018-04-29T12:50:38.002Z,24.88
2018-04-29T12:51:38.013Z,24.96
2018-04-29T12:52:37.999Z,24.85
2018-04-29T12:53:37.995Z,24.9
2018-04-29T12:54:37.998Z,24.81
2018-04-29T12:55:38.000Z,24.95
2018-04-29T12:56:37.745Z,24.84